createdAt,value
2018-02-21T00:02:36.168Z,14.20
2018-02-21T00:17:38.038Z,15.60
2018-02-21T00:32:35.940Z,14.50
2018-02-21T00:47:36.903Z,14.30
2018-02-21T01:02:36.012Z,12.23
2018-02-21T01:17:34.204Z,11.90
2018-02-21T01:32:35.143Z,15.13
2018-02-21T01:47:38.426Z,17.07
2018-02-21T02:02:37.338Z,12.77
2018-02-21T02:17:36.119Z,11.50
2018-02-21T02:32:34.946Z,11.90
2018-02-21T02:47:34.493Z,12.20
2018-02-21T03:02:35.638Z,11.17
2018-02-21T03:17:34.602Z,11.97
2018-02-21T03:32:34.584Z,10.83
2018-02-21T03:47:34.656Z,9.67
2018-02-21T04:02:34.773Z,8.03
2018-02-21T04:17:34.670Z,9.73
2018-02-21T04:32:34.627Z,8.97
2018-02-21T04:47:36.958Z,12.17
2018-02-21T05:02:35.376Z,7.47
2018-02-21T05:17:35.307Z,9.67
2018-02-21T05:32:35.215Z,6.50
2018-02-21T05:47:37.234Z,8.63
2018-02-21T06:02:34.802Z,7.27
2018-02-21T06:17:35.013Z,6.73
2018-02-21T06:32:34.589Z,6.73
2018-02-21T06:47:35.417Z,6.40
2018-02-21T07:02:35.377Z,5.17
2018-02-21T07:17:34.460Z,6.37
2018-02-21T07:32:34.502Z,3.90
2018-02-21T07:47:34.611Z,4.13
2018-02-21T08:02:36.650Z,4.67
2018-02-21T08:17:36.917Z,4.30
2018-02-21T08:32:34.796Z,3.63
2018-02-21T08:47:34.787Z,6.97
2018-02-21T09:02:34.027Z,4.43
2018-02-21T09:17:34.190Z,3.77
2018-02-21T09:32:35.092Z,3.83
2018-02-21T09:47:36.495Z,3.70
2018-02-21T10:02:34.321Z,5.40
2018-02-21T10:17:34.875Z,7.30
2018-02-21T10:32:36.857Z,6.17
2018-02-21T10:47:35.278Z,7.37
2018-02-21T11:02:34.488Z,10.73
2018-02-21T11:17:34.801Z,12.13
2018-02-21T11:32:35.917Z,12.80
2018-02-21T11:47:34.425Z,14.70
2018-02-21T12:02:36.978Z,9.27
2018-02-21T12:17:37.742Z,12.43
2018-02-21T12:32:36.899Z,14.20
2018-02-21T12:47:35.051Z,14.60
2018-02-21T13:02:34.624Z,21.13
2018-02-21T13:17:34.770Z,13.33
2018-02-21T13:32:34.970Z,17.07
2018-02-21T13:47:35.019Z,19.20
2018-02-21T14:02:34.895Z,22.23
2018-02-21T14:17:41.305Z,19.17
2018-02-21T14:32:35.275Z,22.47
2018-02-21T14:47:37.054Z,18.13
2018-02-21T15:02:34.592Z,22.70
2018-02-21T15:17:35.158Z,18.40
2018-02-21T15:32:35.393Z,19.23
2018-02-21T15:47:35.458Z,16.53
2018-02-21T16:02:35.207Z,17.50
2018-02-21T16:17:37.597Z,20.80
2018-02-21T16:32:34.602Z,18.77
2018-02-21T16:47:34.569Z,20.53
2018-02-21T17:02:34.620Z,19.40
2018-02-21T17:17:36.241Z,18.97
2018-02-21T17:32:36.659Z,17.37
2018-02-21T17:47:35.757Z,13.17
2018-02-21T18:02:35.795Z,12.97
2018-02-21T18:17:36.982Z,16.30
2018-02-21T18:32:36.060Z,19.60
2018-02-21T18:47:40.654Z,14.00
2018-02-21T19:02:42.049Z,11.90
2018-02-21T19:17:35.422Z,8.37
2018-02-21T19:32:35.266Z,8.40
2018-02-21T19:47:35.240Z,9.03
2018-02-21T20:02:35.130Z,9.37
2018-02-21T20:17:36.474Z,7.17
2018-02-21T20:32:35.379Z,8.40
2018-02-21T20:47:34.497Z,10.00
2018-02-21T21:02:35.166Z,10.17
2018-02-21T21:17:36.407Z,8.43
2018-02-21T21:32:35.298Z,11.07
2018-02-21T21:47:36.671Z,9.50
2018-02-21T22:02:34.609Z,8.50
2018-02-21T22:17:37.022Z,8.90
2018-02-21T22:32:35.324Z,9.53
2018-02-21T22:47:34.905Z,6.87
2018-02-21T23:02:34.976Z,6.43
2018-02-21T23:17:39.874Z,8.33
2018-02-21T23:32:35.079Z,7.67
2018-02-21T23:47:35.171Z,7.40
